createdAt,value
2023-02-06T00:01:37.679Z,4.28
2023-02-06T00:04:07.597Z,4.15
2023-02-06T00:06:36.100Z,4.15
2023-02-06T00:09:05.127Z,4.05
2023-02-06T00:11:33.509Z,4.80
2023-02-06T00:14:01.927Z,4.03
2023-02-06T00:16:31.939Z,4.10
2023-02-06T00:19:00.665Z,4.00
2023-02-06T00:21:31.434Z,5.00
2023-02-06T00:24:01.540Z,4.47
2023-02-06T00:26:31.321Z,4.35
2023-02-06T00:28:59.770Z,4.93
2023-02-06T00:31:28.103Z,4.55
2023-02-06T00:33:56.256Z,5.82
2023-02-06T00:36:24.382Z,5.00
2023-02-06T00:38:53.900Z,4.45
2023-02-06T00:41:22.183Z,5.15
2023-02-06T00:43:50.272Z,4.78
2023-02-06T00:46:18.444Z,4.60
2023-02-06T00:48:46.509Z,4.50
2023-02-06T00:51:14.851Z,5.13
2023-02-06T00:53:42.951Z,5.20
2023-02-06T00:56:12.479Z,5.15
2023-02-06T00:58:40.564Z,5.30
2023-02-06T01:01:09.320Z,5.38
2023-02-06T01:03:38.184Z,5.13
2023-02-06T01:06:06.855Z,4.97
2023-02-06T01:08:34.981Z,5.22
2023-02-06T01:11:03.131Z,4.90
2023-02-06T01:13:35.143Z,4.85
2023-02-06T01:16:03.215Z,5.38
2023-02-06T01:18:31.662Z,4.97
2023-02-06T01:21:02.812Z,4.93
2023-02-06T01:23:30.908Z,4.53
2023-02-06T01:25:58.931Z,4.22
2023-02-06T01:28:27.421Z,4.63
2023-02-06T01:30:57.069Z,4.88
2023-02-06T01:33:25.187Z,4.32
2023-02-06T01:35:57.267Z,4.30
2023-02-06T01:38:25.313Z,4.28
2023-02-06T01:40:58.560Z,4.20
2023-02-06T01:45:58.601Z,4.03
2023-02-06T01:48:33.277Z,4.57
2023-02-06T01:51:03.584Z,4.82
2023-02-06T01:53:32.635Z,4.30
2023-02-06T01:56:03.907Z,4.68
2023-02-06T01:58:35.369Z,4.30
2023-02-06T02:01:06.698Z,4.10
2023-02-06T02:03:38.027Z,4.50
2023-02-06T02:06:09.809Z,4.63
2023-02-06T02:08:40.472Z,4.45
2023-02-06T02:11:11.125Z,4.28
2023-02-06T02:13:40.076Z,4.85
2023-02-06T02:16:18.157Z,4.32
2023-02-06T02:19:02.967Z,4.22
2023-02-06T02:22:09.402Z,4.80
2023-02-06T02:25:03.021Z,4.35
2023-02-06T02:30:39.704Z,4.40
2023-02-06T02:33:38.426Z,4.40
2023-02-06T02:36:14.922Z,4.40
2023-02-06T02:38:54.957Z,4.28
2023-02-06T02:41:29.445Z,4.65
2023-02-06T02:44:03.117Z,4.40
2023-02-06T02:46:35.940Z,4.93
2023-02-06T02:49:08.512Z,4.63
2023-02-06T02:51:39.450Z,3.97
2023-02-06T02:54:07.926Z,4.82
2023-02-06T02:56:36.237Z,4.40
2023-02-06T02:59:08.706Z,3.95
2023-02-06T03:01:40.958Z,4.13
2023-02-06T03:04:13.872Z,4.00
2023-02-06T03:07:09.800Z,4.00
2023-02-06T03:09:50.869Z,4.45
2023-02-06T03:12:24.046Z,4.53
2023-02-06T03:14:57.231Z,5.15
2023-02-06T03:20:02.256Z,5.03
2023-02-06T03:22:35.698Z,4.50
2023-02-06T03:25:05.954Z,4.60
2023-02-06T03:27:37.455Z,4.65
2023-02-06T03:30:09.055Z,4.43
2023-02-06T03:32:43.786Z,4.75
2023-02-06T03:35:17.607Z,4.97
2023-02-06T03:37:48.486Z,4.20
2023-02-06T03:40:18.228Z,4.70
2023-02-06T03:42:51.510Z,4.35
2023-02-06T03:45:27.120Z,4.85
2023-02-06T03:47:59.773Z,4.63
2023-02-06T03:50:28.830Z,4.82
2023-02-06T03:53:05.506Z,4.57
2023-02-06T03:55:33.767Z,4.38
2023-02-06T03:58:06.245Z,4.70
2023-02-06T04:00:38.709Z,4.47
2023-02-06T04:03:07.317Z,4.88
2023-02-06T04:05:35.656Z,4.45
2023-02-06T04:08:05.426Z,4.60
2023-02-06T04:10:33.694Z,4.30
2023-02-06T04:13:01.805Z,4.15
2023-02-06T04:15:29.893Z,4.82
2023-02-06T04:18:01.124Z,4.32
2023-02-06T04:20:30.359Z,4.28
2023-02-06T04:22:58.624Z,4.65
2023-02-06T04:25:28.199Z,4.10
2023-02-06T04:27:56.309Z,4.47
2023-02-06T04:30:24.770Z,4.70
2023-02-06T04:32:53.333Z,4.78
2023-02-06T04:35:21.519Z,4.63
2023-02-06T04:37:49.645Z,4.60
2023-02-06T04:40:18.198Z,4.32
2023-02-06T04:42:47.810Z,4.72
2023-02-06T04:45:15.996Z,4.82
2023-02-06T04:47:45.045Z,4.57
2023-02-06T04:50:13.367Z,4.63
2023-02-06T04:52:41.652Z,4.75
2023-02-06T04:55:10.453Z,4.97
2023-02-06T04:57:39.046Z,4.90
2023-02-06T05:00:10.563Z,4.47
2023-02-06T05:02:39.786Z,4.25
2023-02-06T05:05:09.969Z,4.20
2023-02-06T05:07:38.437Z,4.80
2023-02-06T05:10:08.983Z,4.72
2023-02-06T05:12:40.510Z,5.18
2023-02-06T05:15:10.972Z,4.60
2023-02-06T05:17:39.047Z,4.70
2023-02-06T05:20:08.717Z,4.20
2023-02-06T05:22:37.273Z,4.80
2023-02-06T05:25:05.682Z,4.50
2023-02-06T05:27:33.917Z,4.95
2023-02-06T05:30:03.636Z,4.38
2023-02-06T05:32:33.823Z,4.25
2023-02-06T05:35:02.013Z,4.05
2023-02-06T05:37:30.077Z,4.30
2023-02-06T05:40:00.003Z,4.70
2023-02-06T05:42:28.208Z,4.53
2023-02-06T05:44:56.272Z,4.60
2023-02-06T05:47:24.532Z,4.40
2023-02-06T05:49:54.178Z,4.70
2023-02-06T05:52:22.324Z,4.90
2023-02-06T05:54:50.508Z,4.47
2023-02-06T05:57:18.643Z,4.38
2023-02-06T05:59:46.765Z,4.55
2023-02-06T06:02:14.840Z,4.43
2023-02-06T06:04:43.005Z,4.63
2023-02-06T06:07:12.675Z,4.57
2023-02-06T06:09:41.324Z,4.45
2023-02-06T06:12:09.485Z,4.68
2023-02-06T06:14:37.593Z,4.65
2023-02-06T06:17:05.807Z,4.60
2023-02-06T06:19:34.101Z,4.25
2023-02-06T06:22:02.166Z,4.60
2023-02-06T06:24:31.576Z,4.45
2023-02-06T06:27:00.071Z,4.50
2023-02-06T06:29:28.547Z,4.63
2023-02-06T06:31:57.039Z,4.88
2023-02-06T06:34:26.232Z,4.57
2023-02-06T06:36:54.305Z,4.40
2023-02-06T06:39:22.563Z,4.63
2023-02-06T06:41:52.280Z,4.95
2023-02-06T06:44:20.362Z,4.57
2023-02-06T06:46:48.494Z,5.40
2023-02-06T06:49:16.702Z,4.85
2023-02-06T06:51:44.761Z,5.28
2023-02-06T06:54:13.039Z,4.93
2023-02-06T06:56:41.226Z,5.00
2023-02-06T06:59:10.686Z,4.72
2023-02-06T07:01:38.922Z,5.18
2023-02-06T07:04:07.091Z,4.90
2023-02-06T07:06:35.211Z,5.30
2023-02-06T07:09:03.332Z,5.30
2023-02-06T07:11:32.198Z,5.00
2023-02-06T07:14:03.140Z,5.22
2023-02-06T07:16:35.527Z,5.03
2023-02-06T07:19:07.477Z,4.78
2023-02-06T07:21:35.822Z,5.53
2023-02-06T07:24:04.281Z,5.70
2023-02-06T07:26:33.608Z,5.72
2023-02-06T07:29:01.862Z,6.00
2023-02-06T07:31:30.155Z,6.47
2023-02-06T07:34:02.262Z,6.45
2023-02-06T07:36:30.459Z,5.32
2023-02-06T07:38:58.622Z,6.20
2023-02-06T07:41:26.773Z,5.40
2023-02-06T07:43:55.204Z,5.18
2023-02-06T07:46:23.351Z,5.00
2023-02-06T07:48:51.551Z,4.85
2023-02-06T07:51:21.016Z,5.40
2023-02-06T07:53:49.468Z,5.22
2023-02-06T07:56:19.565Z,4.85
2023-02-06T07:58:52.345Z,5.63
2023-02-06T08:01:20.656Z,5.32
2023-02-06T08:03:50.425Z,5.47
2023-02-06T08:06:21.818Z,5.57
2023-02-06T08:08:51.314Z,5.93
2023-02-06T08:11:21.016Z,5.47
2023-02-06T08:13:49.644Z,5.80
2023-02-06T08:16:20.414Z,5.90
2023-02-06T08:18:48.656Z,6.00
2023-02-06T08:21:18.721Z,5.85
2023-02-06T08:23:48.802Z,5.93
2023-02-06T08:26:18.626Z,6.20
2023-02-06T08:28:48.513Z,5.55
2023-02-06T08:31:19.326Z,5.88
2023-02-06T08:33:48.073Z,5.68
2023-02-06T08:36:18.026Z,6.13
2023-02-06T08:38:46.506Z,5.78
2023-02-06T08:41:22.092Z,5.85
2023-02-06T08:43:52.239Z,5.57
2023-02-06T08:46:22.244Z,5.43
2023-02-06T08:48:50.512Z,6.00
2023-02-06T08:51:19.456Z,5.60
2023-02-06T08:53:47.816Z,5.47
2023-02-06T08:56:15.973Z,6.00
2023-02-06T08:58:45.581Z,5.40
2023-02-06T09:01:16.641Z,5.63
2023-02-06T09:03:45.946Z,5.68
2023-02-06T09:06:15.727Z,5.38
2023-02-06T09:08:44.650Z,5.68
2023-02-06T09:11:15.640Z,5.60
2023-02-06T09:13:49.118Z,5.90
2023-02-06T09:16:19.555Z,5.50
2023-02-06T09:18:48.134Z,5.70
2023-02-06T09:21:18.344Z,5.22
2023-02-06T09:23:48.026Z,5.55
2023-02-06T09:26:18.179Z,5.55
2023-02-06T09:28:47.710Z,5.70
2023-02-06T09:31:15.996Z,5.78
2023-02-06T09:33:44.229Z,5.10
2023-02-06T09:36:15.389Z,5.47
2023-02-06T09:38:45.459Z,5.65
2023-02-06T09:41:19.059Z,5.45
2023-02-06T09:43:52.640Z,5.63
2023-02-06T09:46:23.519Z,5.72
2023-02-06T09:48:52.156Z,5.47
2023-02-06T09:51:26.678Z,5.00
2023-02-06T09:54:06.613Z,5.32
2023-02-06T09:56:45.419Z,5.88
2023-02-06T09:59:23.531Z,5.32
2023-02-06T10:02:09.778Z,5.65
2023-02-06T10:04:47.608Z,5.05
2023-02-06T10:07:27.026Z,5.45
2023-02-06T10:10:00.245Z,5.20
2023-02-06T10:12:36.477Z,5.32
2023-02-06T10:15:12.358Z,5.65
2023-02-06T10:17:50.865Z,5.90
2023-02-06T10:20:23.520Z,5.28
2023-02-06T10:23:00.789Z,5.10
2023-02-06T10:25:33.796Z,4.97
2023-02-06T10:28:08.271Z,5.10
2023-02-06T10:30:52.286Z,5.53
2023-02-06T10:33:30.051Z,5.20
2023-02-06T10:36:08.061Z,5.40
2023-02-06T10:39:07.833Z,5.18
2023-02-06T10:41:42.117Z,4.95
2023-02-06T10:44:20.592Z,4.95
2023-02-06T10:46:51.867Z,5.13
2023-02-06T10:49:25.804Z,5.38
2023-02-06T10:51:56.905Z,5.25
2023-02-06T10:54:29.483Z,4.90
2023-02-06T10:57:00.935Z,5.22
2023-02-06T10:59:33.440Z,5.43
2023-02-06T11:02:20.291Z,4.90
2023-02-06T11:04:55.513Z,5.15
2023-02-06T11:07:27.909Z,4.68
2023-02-06T11:09:57.169Z,5.55
2023-02-06T11:12:32.629Z,4.82
2023-02-06T11:15:05.204Z,5.35
2023-02-06T11:17:35.437Z,4.75
2023-02-06T11:20:20.265Z,4.88
2023-02-06T11:25:31.261Z,4.85
2023-02-06T11:28:01.041Z,5.15
2023-02-06T11:30:34.739Z,4.68
2023-02-06T11:33:07.216Z,4.70
2023-02-06T11:35:40.341Z,4.47
2023-02-06T11:38:16.842Z,4.60
2023-02-06T11:40:54.540Z,4.95
2023-02-06T11:43:24.788Z,4.47
2023-02-06T11:46:14.881Z,4.55
2023-02-06T11:48:45.891Z,4.72
2023-02-06T11:51:16.782Z,4.90
2023-02-06T11:53:57.219Z,4.82
2023-02-06T11:56:26.000Z,4.40
2023-02-06T11:59:06.934Z,4.60
2023-02-06T12:01:45.293Z,4.50
2023-02-06T12:04:24.002Z,4.45
2023-02-06T12:06:57.381Z,4.30
2023-02-06T12:09:25.934Z,4.10
2023-02-06T12:12:00.601Z,4.70
2023-02-06T12:14:34.675Z,4.63
2023-02-06T12:17:07.016Z,4.38
2023-02-06T12:19:46.012Z,4.55
2023-02-06T12:22:19.273Z,4.40
2023-02-06T12:27:20.621Z,4.20
2023-02-06T12:29:57.219Z,4.20
2023-02-06T12:32:31.596Z,4.40
2023-02-06T12:35:10.146Z,4.80
2023-02-06T12:37:45.185Z,4.30
2023-02-06T12:40:21.217Z,4.40
2023-02-06T12:42:55.916Z,4.15
2023-02-06T12:45:35.594Z,4.45
2023-02-06T12:48:13.147Z,4.30
2023-02-06T12:50:47.597Z,5.03
2023-02-06T12:53:20.562Z,4.30
2023-02-06T12:55:53.913Z,4.63
2023-02-06T12:58:29.320Z,4.50
2023-02-06T13:01:28.850Z,4.18
2023-02-06T13:04:01.852Z,4.22
2023-02-06T13:06:40.726Z,4.68
2023-02-06T13:09:10.271Z,4.32
2023-02-06T13:11:42.577Z,4.88
2023-02-06T13:14:19.425Z,4.07
2023-02-06T13:16:53.924Z,4.20
2023-02-06T13:19:31.720Z,4.20
2023-02-06T13:22:35.374Z,3.70
2023-02-06T13:25:29.964Z,4.20
2023-02-06T13:28:00.972Z,4.60
2023-02-06T13:30:49.978Z,4.32
2023-02-06T13:33:20.103Z,4.13
2023-02-06T13:35:58.130Z,4.00
2023-02-06T13:38:36.989Z,4.20
2023-02-06T13:41:37.231Z,4.53
2023-02-06T13:44:16.005Z,4.35
2023-02-06T13:47:14.508Z,4.18
2023-02-06T13:50:13.376Z,4.35
2023-02-06T13:52:52.528Z,4.18
2023-02-06T13:55:37.142Z,4.30
2023-02-06T13:58:34.360Z,4.70
2023-02-06T14:01:04.278Z,4.47
2023-02-06T14:03:38.293Z,4.55
2023-02-06T14:06:20.715Z,4.30
2023-02-06T14:08:56.906Z,4.45
2023-02-06T14:11:42.770Z,4.28
2023-02-06T14:14:37.216Z,4.30
2023-02-06T14:17:18.850Z,4.55
2023-02-06T14:19:54.330Z,3.97
2023-02-06T14:22:34.012Z,4.75
2023-02-06T14:25:23.554Z,3.72
2023-02-06T14:28:03.428Z,4.20
2023-02-06T14:30:38.770Z,4.15
2023-02-06T14:33:18.812Z,4.10
2023-02-06T14:36:08.324Z,3.78
2023-02-06T14:38:59.442Z,4.57
2023-02-06T14:41:30.420Z,4.50
2023-02-06T14:44:01.181Z,4.03
2023-02-06T14:46:30.234Z,4.18
2023-02-06T14:49:00.328Z,4.80
2023-02-06T14:51:31.892Z,4.45
2023-02-06T14:54:02.438Z,4.85
2023-02-06T14:56:32.485Z,4.68
2023-02-06T14:59:16.859Z,5.13
2023-02-06T15:01:46.962Z,5.18
2023-02-06T15:04:17.601Z,5.00
2023-02-06T15:06:52.719Z,4.20
2023-02-06T15:09:29.146Z,4.63
2023-02-06T15:11:59.526Z,4.63
2023-02-06T15:14:31.258Z,4.32
2023-02-06T15:17:00.992Z,4.70
2023-02-06T15:19:31.021Z,5.03
2023-02-06T15:22:02.108Z,5.28
2023-02-06T15:24:52.921Z,5.05
2023-02-06T15:27:29.208Z,4.80
2023-02-06T15:30:04.701Z,4.38
2023-02-06T15:32:34.728Z,4.82
2023-02-06T15:35:03.757Z,4.68
2023-02-06T15:37:34.941Z,4.70
2023-02-06T15:40:09.839Z,5.20
2023-02-06T15:42:40.084Z,4.97
2023-02-06T15:45:18.993Z,4.80
2023-02-06T15:47:47.493Z,5.25
2023-02-06T15:50:19.409Z,4.88
2023-02-06T15:52:48.267Z,4.82
2023-02-06T15:55:28.482Z,4.57
2023-02-06T15:58:00.404Z,4.75
2023-02-06T16:00:32.592Z,4.63
2023-02-06T16:03:03.926Z,5.20
2023-02-06T16:05:34.946Z,4.50
2023-02-06T16:08:04.756Z,4.75
2023-02-06T16:10:38.531Z,4.90
2023-02-06T16:13:10.782Z,4.80
2023-02-06T16:15:41.825Z,5.18
2023-02-06T16:18:30.808Z,5.55
2023-02-06T16:21:14.745Z,5.30
2023-02-06T16:26:17.899Z,4.57
2023-02-06T16:28:56.363Z,4.65
2023-02-06T16:31:27.675Z,4.60
2023-02-06T16:34:03.008Z,4.43
2023-02-06T16:36:33.590Z,4.30
2023-02-06T16:39:04.572Z,4.50
2023-02-06T16:41:35.555Z,4.72
2023-02-06T16:44:05.420Z,4.38
2023-02-06T16:46:34.945Z,4.35
2023-02-06T16:49:03.218Z,4.57
2023-02-06T16:51:32.059Z,4.85
2023-02-06T16:54:00.225Z,4.22
2023-02-06T16:56:32.613Z,4.80
2023-02-06T16:59:01.119Z,4.33
2023-02-06T17:01:29.804Z,4.60
2023-02-06T17:03:59.650Z,4.53
2023-02-06T17:06:30.137Z,4.60
2023-02-06T17:09:04.419Z,4.30
2023-02-06T17:11:33.089Z,4.20
2023-02-06T17:14:01.220Z,4.50
2023-02-06T17:16:30.063Z,4.30
2023-02-06T17:18:59.566Z,4.63
2023-02-06T17:21:32.581Z,4.90
2023-02-06T17:24:01.265Z,4.97
2023-02-06T17:26:29.488Z,4.70
2023-02-06T17:28:57.689Z,4.55
2023-02-06T17:31:25.933Z,4.57
2023-02-06T17:33:54.059Z,5.28
2023-02-06T17:36:29.472Z,4.72
2023-02-06T17:38:58.890Z,5.20
2023-02-06T17:41:27.256Z,4.88
2023-02-06T17:43:55.529Z,4.72
2023-02-06T17:46:24.134Z,4.78
2023-02-06T17:48:52.286Z,5.07
2023-02-06T17:51:20.462Z,5.40
2023-02-06T17:53:50.346Z,4.85
2023-02-06T17:56:19.352Z,4.68
2023-02-06T17:58:48.169Z,5.10
2023-02-06T18:01:21.751Z,4.88
2023-02-06T18:03:50.854Z,4.75
2023-02-06T18:06:19.900Z,5.18
2023-02-06T18:08:48.530Z,4.75
2023-02-06T18:11:20.384Z,4.90
2023-02-06T18:13:50.193Z,5.13
2023-02-06T18:16:20.261Z,5.35
2023-02-06T18:18:49.131Z,4.93
2023-02-06T18:21:19.324Z,4.82
2023-02-06T18:23:48.181Z,4.93
2023-02-06T18:26:18.290Z,5.13
2023-02-06T18:28:47.215Z,4.88
2023-02-06T18:31:27.191Z,5.00
2023-02-06T18:33:57.125Z,5.03
2023-02-06T18:36:26.565Z,4.88
2023-02-06T18:38:55.029Z,5.47
2023-02-06T18:41:42.464Z,5.45
2023-02-06T18:44:12.180Z,4.80
2023-02-06T18:46:40.838Z,4.78
2023-02-06T18:49:09.880Z,5.05
2023-02-06T18:51:38.414Z,5.50
2023-02-06T18:54:07.760Z,5.68
2023-02-06T18:56:37.786Z,5.50
2023-02-06T18:59:06.887Z,5.72
2023-02-06T19:01:35.614Z,5.53
2023-02-06T19:04:04.162Z,5.57
2023-02-06T19:06:36.574Z,8.93
2023-02-06T19:09:07.154Z,7.45
2023-02-06T19:11:37.654Z,7.28
2023-02-06T19:14:07.328Z,7.45
2023-02-06T19:16:38.435Z,6.63
2023-02-06T19:19:08.675Z,6.72
2023-02-06T19:21:37.233Z,6.55
2023-02-06T19:24:07.812Z,6.03
2023-02-06T19:26:38.027Z,6.95
2023-02-06T19:29:06.478Z,6.55
2023-02-06T19:31:36.073Z,6.68
2023-02-06T19:34:04.502Z,7.60
2023-02-06T19:36:33.386Z,7.15
2023-02-06T19:39:06.035Z,6.68
2023-02-06T19:41:40.915Z,7.47
2023-02-06T19:44:11.104Z,6.65
2023-02-06T19:46:41.506Z,7.20
2023-02-06T19:49:12.050Z,7.43
2023-02-06T19:51:44.854Z,7.25
2023-02-06T19:54:13.265Z,6.97
2023-02-06T19:56:46.546Z,7.07
2023-02-06T19:59:19.220Z,7.05
2023-02-06T20:01:49.842Z,6.60
2023-02-06T20:04:19.746Z,6.63
2023-02-06T20:06:50.021Z,6.75
2023-02-06T20:09:20.544Z,6.13
2023-02-06T20:11:51.335Z,6.95
2023-02-06T20:14:20.951Z,7.00
2023-02-06T20:16:50.459Z,6.95
2023-02-06T20:19:21.341Z,6.88
2023-02-06T20:21:52.215Z,6.75
2023-02-06T20:24:23.739Z,6.75
2023-02-06T20:26:55.995Z,6.53
2023-02-06T20:29:26.738Z,6.93
2023-02-06T20:31:56.176Z,6.35
2023-02-06T20:34:28.674Z,6.82
2023-02-06T20:36:57.426Z,6.27
2023-02-06T20:39:27.593Z,6.30
2023-02-06T20:41:57.403Z,6.95
2023-02-06T20:44:29.726Z,6.55
2023-02-06T20:46:58.421Z,6.13
2023-02-06T20:49:28.840Z,7.03
2023-02-06T20:51:57.467Z,6.80
2023-02-06T20:54:26.060Z,6.75
2023-02-06T20:56:54.681Z,6.60
2023-02-06T20:59:24.380Z,6.80
2023-02-06T21:01:53.074Z,6.70
2023-02-06T21:04:21.600Z,6.75
2023-02-06T21:06:50.120Z,6.25
2023-02-06T21:09:19.504Z,6.90
2023-02-06T21:11:49.972Z,6.63
2023-02-06T21:14:20.128Z,7.03
2023-02-06T21:16:49.750Z,6.38
2023-02-06T21:19:20.155Z,5.90
2023-02-06T21:21:49.052Z,6.13
2023-02-06T21:24:17.925Z,6.22
2023-02-06T21:26:46.328Z,6.45
2023-02-06T21:29:15.585Z,6.40
2023-02-06T21:31:44.282Z,7.45
2023-02-06T21:34:15.604Z,6.68
2023-02-06T21:36:44.105Z,7.03
2023-02-06T21:39:15.556Z,7.10
2023-02-06T21:41:44.433Z,6.82
2023-02-06T21:44:12.654Z,7.00
2023-02-06T21:46:40.789Z,7.50
2023-02-06T21:49:11.594Z,6.95
2023-02-06T21:51:41.217Z,7.00
2023-02-06T21:54:09.607Z,7.65
2023-02-06T21:56:39.397Z,7.22
2023-02-06T21:59:07.923Z,6.30
2023-02-06T22:01:38.061Z,6.78
2023-02-06T22:04:06.436Z,6.43
2023-02-06T22:06:36.909Z,6.60
2023-02-06T22:09:08.602Z,7.25
2023-02-06T22:11:38.429Z,7.22
2023-02-06T22:14:09.294Z,6.88
2023-02-06T22:16:38.040Z,7.10
2023-02-06T22:19:06.892Z,7.00
2023-02-06T22:21:35.863Z,6.90
2023-02-06T22:24:07.890Z,6.35
2023-02-06T22:26:38.820Z,6.80
2023-02-06T22:29:08.403Z,6.75
2023-02-06T22:31:37.607Z,6.03
2023-02-06T22:34:05.948Z,6.95
2023-02-06T22:36:34.779Z,6.85
2023-02-06T22:39:09.393Z,6.93
2023-02-06T22:41:42.440Z,6.90
2023-02-06T22:46:40.952Z,7.13
2023-02-06T22:49:10.245Z,6.63
2023-02-06T22:51:39.639Z,6.88
2023-02-06T22:54:09.399Z,6.72
2023-02-06T22:56:39.359Z,7.10
2023-02-06T22:59:11.128Z,7.05
2023-02-06T23:01:42.421Z,7.13
2023-02-06T23:04:19.602Z,7.38
2023-02-06T23:06:48.572Z,7.18
2023-02-06T23:09:19.886Z,7.43
2023-02-06T23:11:48.597Z,7.63
2023-02-06T23:14:18.676Z,7.60
2023-02-06T23:16:47.916Z,7.47
2023-02-06T23:19:16.709Z,7.43
2023-02-06T23:21:46.609Z,7.47
2023-02-06T23:24:15.754Z,7.80
2023-02-06T23:26:45.488Z,7.72
2023-02-06T23:29:15.819Z,7.25
2023-02-06T23:31:46.054Z,8.05
2023-02-06T23:34:14.975Z,7.53
2023-02-06T23:36:43.630Z,7.57
2023-02-06T23:39:12.854Z,7.88
2023-02-06T23:41:41.119Z,7.68
2023-02-06T23:44:09.935Z,8.27
2023-02-06T23:46:39.467Z,8.13
2023-02-06T23:49:09.641Z,7.97
2023-02-06T23:51:38.945Z,7.97
2023-02-06T23:54:08.237Z,8.35
2023-02-06T23:56:37.336Z,8.07
2023-02-06T23:59:06.856Z,7.93
